createdAt,value
2022-09-23T00:01:03.330Z,100104.97
2022-09-23T00:03:31.732Z,100099.78
2022-09-23T00:06:02.689Z,100103.34
2022-09-23T00:08:29.976Z,100102.63
2022-09-23T00:10:57.399Z,100099.09
2022-09-23T00:13:25.124Z,100095.84
2022-09-23T00:15:52.488Z,100095.84
2022-09-23T00:18:20.804Z,100095.94
2022-09-23T00:20:47.988Z,100089.81
2022-09-23T00:23:14.869Z,100089.03
2022-09-23T00:25:41.446Z,100085.53
2022-09-23T00:28:07.924Z,100082.16
2022-09-23T00:30:34.504Z,100083.94
2022-09-23T00:33:01.042Z,100084.09
2022-09-23T00:35:27.581Z,100083.13
2022-09-23T00:37:54.103Z,100077.81
2022-09-23T00:40:20.811Z,100076.97
2022-09-23T00:42:52.173Z,100077.06
2022-09-23T00:45:19.128Z,100080.47
2022-09-23T00:48:01.442Z,100077.06
2022-09-23T00:50:39.606Z,100077.06
2022-09-23T00:53:10.484Z,100070.72
2022-09-23T00:55:43.092Z,100067.22
2022-09-23T00:58:14.946Z,100060.97
2022-09-23T01:00:42.531Z,100063.53
2022-09-23T01:03:09.559Z,100055.56
2022-09-23T01:05:36.666Z,100066.16
2022-09-23T01:08:04.937Z,100054.63
2022-09-23T01:10:43.096Z,100062.56
2022-09-23T01:13:34.008Z,100061.84
2022-09-23T01:16:26.712Z,100060.66
2022-09-23T01:19:18.124Z,100054.50
2022-09-23T01:21:58.128Z,100060.44
2022-09-23T01:24:59.497Z,100050.69
2022-09-23T01:27:28.915Z,100048.56
2022-09-23T01:30:01.359Z,100058.22
2022-09-23T01:32:27.794Z,100047.63
2022-09-23T01:35:13.112Z,100047.50
2022-09-23T01:38:11.993Z,100050.25
2022-09-23T01:40:59.896Z,100047.63
2022-09-23T01:43:47.322Z,100046.78
2022-09-23T01:46:22.863Z,100034.38
2022-09-23T01:49:00.760Z,100039.66
2022-09-23T01:51:32.929Z,100037.97
2022-09-23T01:54:15.999Z,100036.28
2022-09-23T01:56:51.888Z,100031.00
2022-09-23T01:59:29.101Z,100031.19
2022-09-23T02:02:04.387Z,100032.16
2022-09-23T02:04:39.603Z,100027.94
2022-09-23T02:07:15.251Z,100028.13
2022-09-23T02:09:46.693Z,100029.09
2022-09-23T02:12:18.933Z,100027.50
2022-09-23T02:15:14.449Z,100018.06
2022-09-23T02:17:52.021Z,100024.09
2022-09-23T02:20:24.234Z,100021.44
2022-09-23T02:23:06.311Z,100013.75
2022-09-23T02:25:54.393Z,100011.91
2022-09-23T02:28:39.478Z,100010.34
2022-09-23T02:31:16.448Z,100006.72
2022-09-23T02:34:05.687Z,100012.25
2022-09-23T02:37:00.000Z,100000.06
2022-09-23T02:39:38.105Z,99997.28
2022-09-23T02:42:10.686Z,99999.94
2022-09-23T02:44:37.292Z,100000.06
2022-09-23T02:47:03.952Z,100001.97
2022-09-23T02:49:32.257Z,100004.72
2022-09-23T02:52:04.699Z,99996.03
2022-09-23T02:54:35.823Z,99991.69
2022-09-23T02:57:05.735Z,99989.16
2022-09-23T02:59:34.053Z,99991.81
2022-09-23T03:02:20.709Z,99984.28
2022-09-23T03:05:03.858Z,99977.19
2022-09-23T03:07:45.840Z,99976.34
2022-09-23T03:10:22.760Z,99976.53
2022-09-23T03:13:26.113Z,99965.31
2022-09-23T03:16:08.656Z,99971.47
2022-09-23T03:18:59.007Z,99973.47
2022-09-23T03:21:29.000Z,99976.75
2022-09-23T03:23:59.549Z,99967.88
2022-09-23T03:26:36.201Z,99968.06
2022-09-23T03:29:05.643Z,99966.06
2022-09-23T03:31:33.987Z,99959.81
2022-09-23T03:34:03.456Z,99966.81
2022-09-23T03:36:51.607Z,99953.56
2022-09-23T03:39:30.316Z,99951.88
2022-09-23T03:42:01.270Z,99954.31
2022-09-23T03:44:29.228Z,99956.13
2022-09-23T03:47:02.406Z,99957.06
2022-09-23T03:49:34.930Z,99952.59
2022-09-23T03:52:02.514Z,99948.16
2022-09-23T03:54:30.067Z,99947.31
2022-09-23T03:56:58.342Z,99943.94
2022-09-23T03:59:25.605Z,99943.06
2022-09-23T04:01:52.258Z,99938.03
2022-09-23T04:04:19.032Z,99943.50
2022-09-23T04:06:46.464Z,99939.19
2022-09-23T04:09:13.132Z,99942.75
2022-09-23T04:11:39.810Z,99943.72
2022-09-23T04:14:07.225Z,99936.75
2022-09-23T04:16:33.879Z,99933.31
2022-09-23T04:19:00.356Z,99937.78
2022-09-23T04:21:27.041Z,99929.09
2022-09-23T04:23:53.540Z,99925.72
2022-09-23T04:26:20.056Z,99936.50
2022-09-23T04:28:46.562Z,99933.13
2022-09-23T04:31:13.189Z,99927.19
2022-09-23T04:33:39.741Z,99922.94
2022-09-23T04:36:06.543Z,99924.00
2022-09-23T04:38:33.220Z,99925.06
2022-09-23T04:40:59.854Z,99923.59
2022-09-23T04:43:26.393Z,99923.78
2022-09-23T04:46:05.328Z,99915.41
2022-09-23T04:48:32.284Z,99908.25
2022-09-23T04:51:07.212Z,99908.63
2022-09-23T04:53:36.006Z,99909.59
2022-09-23T04:56:07.460Z,99897.44
2022-09-23T04:58:34.704Z,99902.81
2022-09-23T05:01:24.915Z,99906.03
2022-09-23T05:03:53.540Z,99905.94
2022-09-23T05:06:20.723Z,99899.91
2022-09-23T05:08:52.256Z,99898.41
2022-09-23T05:11:19.036Z,99899.25
2022-09-23T05:13:48.087Z,99904.75
2022-09-23T05:16:15.490Z,99892.38
2022-09-23T05:18:43.936Z,99895.13
2022-09-23T05:21:11.922Z,99896.91
2022-09-23T05:23:39.833Z,99886.47
2022-09-23T05:26:11.821Z,99884.03
2022-09-23T05:28:39.465Z,99881.28
2022-09-23T05:31:19.948Z,99891.09
2022-09-23T05:33:58.381Z,99897.13
2022-09-23T05:36:26.022Z,99898.72
2022-09-23T05:38:52.778Z,99890.91
2022-09-23T05:41:23.136Z,99902.34
2022-09-23T05:43:53.886Z,99899.56
2022-09-23T05:46:26.394Z,99893.34
2022-09-23T05:48:53.269Z,99904.66
2022-09-23T05:51:22.023Z,99900.22
2022-09-23T05:53:52.555Z,99907.28
2022-09-23T05:56:22.413Z,99911.44
2022-09-23T05:58:50.433Z,99916.53
2022-09-23T06:01:22.386Z,99911.13
2022-09-23T06:03:49.986Z,99919.75
2022-09-23T06:06:18.509Z,99918.59
2022-09-23T06:08:46.297Z,99912.25
2022-09-23T06:11:13.874Z,99921.75
2022-09-23T06:13:41.353Z,99922.44
2022-09-23T06:16:11.043Z,99914.34
2022-09-23T06:18:44.543Z,99920.41
2022-09-23T06:21:15.991Z,99915.66
2022-09-23T06:23:44.080Z,99918.09
2022-09-23T06:26:12.713Z,99910.78
2022-09-23T06:28:41.255Z,99915.88
2022-09-23T06:31:13.503Z,99907.84
2022-09-23T06:33:40.558Z,99907.59
2022-09-23T06:36:07.867Z,99908.16
2022-09-23T06:38:35.128Z,99898.31
2022-09-23T06:41:03.271Z,99895.44
2022-09-23T06:43:30.668Z,99902.34
2022-09-23T06:46:01.839Z,99907.41
2022-09-23T06:48:29.164Z,99905.41
2022-09-23T06:50:59.689Z,99901.06
2022-09-23T06:53:26.238Z,99906.88
2022-09-23T06:56:06.974Z,99899.13
2022-09-23T06:58:35.526Z,99901.38
2022-09-23T07:01:04.561Z,99910.91
2022-09-23T07:03:31.905Z,99906.34
2022-09-23T07:05:59.196Z,99907.09
2022-09-23T07:08:27.345Z,99897.31
2022-09-23T07:10:55.304Z,99903.38
2022-09-23T07:13:21.836Z,99902.41
2022-09-23T07:15:58.405Z,99904.09
2022-09-23T07:18:26.416Z,99903.69
2022-09-23T07:20:54.711Z,99903.44
2022-09-23T07:23:21.259Z,99904.94
2022-09-23T07:25:49.515Z,99902.19
2022-09-23T07:28:16.039Z,99908.94
2022-09-23T07:30:56.504Z,99909.56
2022-09-23T07:33:33.125Z,99908.41
2022-09-23T07:36:11.132Z,99906.50
2022-09-23T07:38:41.631Z,99907.75
2022-09-23T07:41:14.192Z,99915.47
2022-09-23T07:43:40.863Z,99912.41
2022-09-23T07:46:11.282Z,99915.59
2022-09-23T07:48:39.010Z,99915.03
2022-09-23T07:51:11.599Z,99915.41
2022-09-23T07:53:38.221Z,99907.66
2022-09-23T07:56:06.604Z,99912.16
2022-09-23T07:58:34.485Z,99913.16
2022-09-23T08:01:12.058Z,99912.59
2022-09-23T08:03:39.874Z,99913.28
2022-09-23T08:06:12.285Z,99916.16
2022-09-23T08:08:40.703Z,99909.00
2022-09-23T08:11:10.309Z,99914.31
2022-09-23T08:13:37.140Z,99913.38
2022-09-23T08:16:04.540Z,99909.91
2022-09-23T08:18:31.113Z,99905.72
2022-09-23T08:20:57.744Z,99912.84
2022-09-23T08:23:24.367Z,99903.28
2022-09-23T08:25:59.708Z,99908.94
2022-09-23T08:28:27.130Z,99900.88
2022-09-23T08:30:53.714Z,99903.75
2022-09-23T08:33:23.326Z,99905.91
2022-09-23T08:35:50.507Z,99905.28
2022-09-23T08:38:17.017Z,99901.28
2022-09-23T08:40:47.502Z,99899.09
2022-09-23T08:43:35.982Z,99898.16
2022-09-23T08:46:06.114Z,99904.63
2022-09-23T08:48:38.570Z,99906.19
2022-09-23T08:51:11.123Z,99898.94
2022-09-23T08:53:38.334Z,99906.53
2022-09-23T08:56:17.310Z,99911.72
2022-09-23T08:58:52.880Z,99910.41
2022-09-23T09:01:23.156Z,99914.28
2022-09-23T09:03:56.709Z,99908.69
2022-09-23T09:06:23.171Z,99908.19
2022-09-23T09:08:57.050Z,99906.22
2022-09-23T09:11:31.390Z,99902.34
2022-09-23T09:14:24.341Z,99906.56
2022-09-23T09:17:04.863Z,99914.19
2022-09-23T09:20:19.069Z,99896.00
2022-09-23T09:23:04.624Z,99906.00
2022-09-23T09:25:50.094Z,99908.03
2022-09-23T09:28:26.637Z,99898.66
2022-09-23T09:31:05.807Z,99900.81
2022-09-23T09:33:44.794Z,99896.78
2022-09-23T09:36:25.168Z,99895.69
2022-09-23T09:38:53.385Z,99892.34
2022-09-23T09:41:24.609Z,99890.13
2022-09-23T09:43:59.255Z,99892.41
2022-09-23T09:46:25.733Z,99893.72
2022-09-23T09:49:02.788Z,99887.53
2022-09-23T09:51:29.686Z,99885.19
2022-09-23T09:54:17.239Z,99883.63
2022-09-23T09:56:45.007Z,99882.03
2022-09-23T09:59:18.191Z,99889.03
2022-09-23T10:01:45.877Z,99879.94
2022-09-23T10:04:35.020Z,99875.16
2022-09-23T10:07:15.562Z,99874.19
2022-09-23T10:09:50.057Z,99875.03
2022-09-23T10:12:22.116Z,99880.09
2022-09-23T10:14:51.444Z,99874.63
2022-09-23T10:17:22.125Z,99872.66
2022-09-23T10:19:55.803Z,99868.88
2022-09-23T10:22:30.072Z,99874.81
2022-09-23T10:25:01.567Z,99869.19
2022-09-23T10:27:33.354Z,99866.25
2022-09-23T10:30:03.662Z,99859.69
2022-09-23T10:32:43.276Z,99868.38
2022-09-23T10:35:09.761Z,99867.69
2022-09-23T10:37:40.346Z,99864.75
2022-09-23T10:40:34.682Z,99858.16
2022-09-23T10:43:38.374Z,99858.44
2022-09-23T10:46:38.910Z,99852.13
2022-09-23T10:49:41.141Z,99860.16
2022-09-23T10:52:36.146Z,99856.66
2022-09-23T10:55:11.788Z,99856.53
2022-09-23T10:57:47.432Z,99855.28
2022-09-23T11:00:37.952Z,99857.69
2022-09-23T11:03:41.725Z,99858.38
2022-09-23T11:06:14.215Z,99847.81
2022-09-23T11:08:59.269Z,99843.88
2022-09-23T11:11:30.568Z,99841.91
2022-09-23T11:14:23.679Z,99842.22
2022-09-23T11:17:14.729Z,99842.50
2022-09-23T11:19:45.292Z,99839.53
2022-09-23T11:22:38.078Z,99840.22
2022-09-23T11:25:28.079Z,99829.72
2022-09-23T11:28:13.419Z,99828.47
2022-09-23T11:30:49.002Z,99820.44
2022-09-23T11:33:49.228Z,99829.41
2022-09-23T11:36:26.117Z,99831.22
2022-09-23T11:38:54.833Z,99826.03
2022-09-23T11:41:27.166Z,99825.47
2022-09-23T11:44:28.357Z,99824.88
2022-09-23T11:47:03.363Z,99822.03
2022-09-23T11:49:39.376Z,99816.94
2022-09-23T11:52:12.775Z,99820.56
2022-09-23T11:55:01.961Z,99815.06
2022-09-23T11:57:45.910Z,99818.41
2022-09-23T12:00:24.322Z,99811.66
2022-09-23T12:03:18.493Z,99808.25
2022-09-23T12:05:48.302Z,99801.69
2022-09-23T12:08:30.177Z,99804.59
2022-09-23T12:11:06.609Z,99812.28
2022-09-23T12:13:51.570Z,99807.69
2022-09-23T12:16:49.240Z,99809.78
2022-09-23T12:19:29.282Z,99807.03
2022-09-23T12:22:04.582Z,99804.97
2022-09-23T12:24:58.861Z,99807.06
2022-09-23T12:27:36.925Z,99809.44
2022-09-23T12:30:16.971Z,99798.72
2022-09-23T12:32:44.171Z,99802.78
2022-09-23T12:35:35.652Z,99803.38
2022-09-23T12:38:02.290Z,99798.41
2022-09-23T12:40:35.434Z,99800.53
2022-09-23T12:43:02.655Z,99792.38
2022-09-23T12:45:33.811Z,99792.53
2022-09-23T12:48:23.709Z,99785.50
2022-09-23T12:51:07.758Z,99784.81
2022-09-23T12:53:34.289Z,99789.53
2022-09-23T12:56:13.962Z,99780.38
2022-09-23T12:58:43.429Z,99782.75
2022-09-23T13:01:18.218Z,99777.91
2022-09-23T13:04:13.214Z,99768.41
2022-09-23T13:06:47.967Z,99777.50
2022-09-23T13:09:21.445Z,99766.47
2022-09-23T13:11:48.673Z,99760.81
2022-09-23T13:14:25.242Z,99769.00
2022-09-23T13:16:56.252Z,99761.66
2022-09-23T13:19:25.808Z,99762.63
2022-09-23T13:22:07.745Z,99765.66
2022-09-23T13:24:47.589Z,99764.78
2022-09-23T13:27:32.683Z,99754.09
2022-09-23T13:30:07.987Z,99750.91
2022-09-23T13:32:39.577Z,99755.88
2022-09-23T13:35:32.979Z,99750.13
2022-09-23T13:37:59.674Z,99745.63
2022-09-23T13:40:28.609Z,99745.94
2022-09-23T13:43:03.394Z,99739.22
2022-09-23T13:45:31.450Z,99737.56
2022-09-23T13:48:08.567Z,99739.84
2022-09-23T13:50:38.875Z,99743.53
2022-09-23T13:53:16.753Z,99739.16
2022-09-23T13:55:43.349Z,99735.03
2022-09-23T13:58:18.672Z,99741.91
2022-09-23T14:00:46.080Z,99733.09
2022-09-23T14:03:24.763Z,99729.94
2022-09-23T14:05:53.023Z,99737.56
2022-09-23T14:08:20.383Z,99726.72
2022-09-23T14:10:47.741Z,99729.63
2022-09-23T14:13:25.769Z,99726.47
2022-09-23T14:16:01.594Z,99728.69
2022-09-23T14:18:30.789Z,99721.47
2022-09-23T14:20:57.373Z,99710.09
2022-09-23T14:23:23.927Z,99717.78
2022-09-23T14:25:52.610Z,99715.88
2022-09-23T14:28:22.786Z,99712.84
2022-09-23T14:30:52.806Z,99712.31
2022-09-23T14:33:26.670Z,99702.94
2022-09-23T14:35:57.630Z,99704.75
2022-09-23T14:38:48.006Z,99700.56
2022-09-23T14:41:25.570Z,99704.25
2022-09-23T14:43:57.325Z,99697.88
2022-09-23T14:46:27.207Z,99698.72
2022-09-23T14:49:06.992Z,99695.84
2022-09-23T14:51:56.683Z,99702.19
2022-09-23T14:54:39.439Z,99706.66
2022-09-23T14:57:26.081Z,99692.22
2022-09-23T15:00:00.125Z,99695.03
2022-09-23T15:02:33.978Z,99686.34
2022-09-23T15:05:18.520Z,99695.97
2022-09-23T15:07:49.499Z,99690.75
2022-09-23T15:10:27.672Z,99682.22
2022-09-23T15:13:03.326Z,99683.88
2022-09-23T15:15:29.991Z,99682.22
2022-09-23T15:18:07.557Z,99684.38
2022-09-23T15:20:34.877Z,99684.03
2022-09-23T15:23:01.757Z,99681.22
2022-09-23T15:25:34.642Z,99677.88
2022-09-23T15:28:13.066Z,99674.34
2022-09-23T15:30:39.967Z,99679.25
2022-09-23T15:33:06.877Z,99672.22
2022-09-23T15:35:33.545Z,99678.69
2022-09-23T15:38:01.788Z,99677.16
2022-09-23T15:40:31.221Z,99674.97
2022-09-23T15:43:00.679Z,99672.75
2022-09-23T15:45:33.911Z,99676.75
2022-09-23T15:48:22.804Z,99670.34
2022-09-23T15:50:50.857Z,99673.03
2022-09-23T15:53:31.590Z,99670.94
2022-09-23T15:55:58.762Z,99666.75
2022-09-23T15:58:26.133Z,99670.88
2022-09-23T16:00:56.751Z,99662.63
2022-09-23T16:03:31.097Z,99663.94
2022-09-23T16:06:02.465Z,99660.03
2022-09-23T16:08:30.204Z,99665.84
2022-09-23T16:10:56.879Z,99669.84
2022-09-23T16:13:23.529Z,99663.97
2022-09-23T16:15:50.148Z,99664.41
2022-09-23T16:18:16.918Z,99661.19
2022-09-23T16:20:45.715Z,99658.13
2022-09-23T16:23:40.375Z,99659.56
2022-09-23T16:26:15.723Z,99659.84
2022-09-23T16:28:43.187Z,99658.19
2022-09-23T16:31:11.310Z,99659.63
2022-09-23T16:33:38.766Z,99658.22
2022-09-23T16:36:09.498Z,99656.84
2022-09-23T16:38:35.959Z,99651.81
2022-09-23T16:41:03.043Z,99653.09
2022-09-23T16:43:39.332Z,99657.06
2022-09-23T16:46:12.393Z,99657.66
2022-09-23T16:48:40.584Z,99653.47
2022-09-23T16:51:08.834Z,99652.94
2022-09-23T16:53:36.053Z,99650.84
2022-09-23T16:56:09.601Z,99654.09
2022-09-23T16:58:37.258Z,99657.91
2022-09-23T17:01:23.529Z,99662.81
2022-09-23T17:03:50.079Z,99656.94
2022-09-23T17:06:19.392Z,99668.91
2022-09-23T17:08:48.225Z,99667.66
2022-09-23T17:11:16.546Z,99673.44
2022-09-23T17:13:44.327Z,99675.72
2022-09-23T17:16:21.137Z,99668.09
2022-09-23T17:18:47.743Z,99669.22
2022-09-23T17:21:14.330Z,99667.84
2022-09-23T17:23:41.148Z,99663.78
2022-09-23T17:26:09.890Z,99665.91
2022-09-23T17:28:36.515Z,99653.69
2022-09-23T17:31:05.620Z,99652.44
2022-09-23T17:33:37.289Z,99657.91
2022-09-23T17:36:12.623Z,99664.78
2022-09-23T17:38:39.438Z,99660.59
2022-09-23T17:41:07.816Z,99653.88
2022-09-23T17:43:36.205Z,99662.00
2022-09-23T17:46:11.328Z,99666.91
2022-09-23T17:48:40.884Z,99669.59
2022-09-23T17:51:21.685Z,99660.19
2022-09-23T17:53:49.179Z,99665.53
2022-09-23T17:56:21.360Z,99665.09
2022-09-23T17:58:49.442Z,99659.78
2022-09-23T18:01:17.789Z,99660.06
2022-09-23T18:03:45.209Z,99661.19
2022-09-23T18:06:13.256Z,99658.66
2022-09-23T18:08:41.511Z,99655.31
2022-09-23T18:11:24.294Z,99655.84
2022-09-23T18:13:56.694Z,99661.91
2022-09-23T18:16:26.383Z,99653.03
2022-09-23T18:18:57.314Z,99654.03
2022-09-23T18:21:28.850Z,99654.16
2022-09-23T18:23:59.755Z,99660.06
2022-09-23T18:26:29.802Z,99652.22
2022-09-23T18:29:01.446Z,99656.69
2022-09-23T18:31:32.629Z,99652.22
2022-09-23T18:33:59.155Z,99651.22
2022-09-23T18:36:25.742Z,99652.06
2022-09-23T18:38:53.126Z,99653.91
2022-09-23T18:41:19.836Z,99648.56
2022-09-23T18:43:48.743Z,99646.03
2022-09-23T18:46:21.319Z,99640.84
2022-09-23T18:49:06.697Z,99636.38
2022-09-23T18:51:35.076Z,99643.50
2022-09-23T18:54:03.333Z,99639.19
2022-09-23T18:56:33.714Z,99640.16
2022-09-23T18:59:00.559Z,99632.31
2022-09-23T19:01:27.357Z,99642.09
2022-09-23T19:03:58.395Z,99642.38
2022-09-23T19:06:25.729Z,99641.44
2022-09-23T19:08:54.744Z,99644.34
2022-09-23T19:11:22.891Z,99640.03
2022-09-23T19:13:57.643Z,99646.47
2022-09-23T19:16:25.880Z,99641.97
2022-09-23T19:18:53.094Z,99643.81
2022-09-23T19:21:22.423Z,99646.59
2022-09-23T19:24:04.308Z,99640.69
2022-09-23T19:26:34.665Z,99643.09
2022-09-23T19:29:02.817Z,99638.88
2022-09-23T19:31:33.373Z,99644.34
2022-09-23T19:34:11.415Z,99640.38
2022-09-23T19:36:40.450Z,99642.22
2022-09-23T19:39:12.178Z,99645.16
2022-09-23T19:41:38.700Z,99640.94
2022-09-23T19:44:07.295Z,99641.22
2022-09-23T19:46:37.199Z,99638.84
2022-09-23T19:49:05.112Z,99630.16
2022-09-23T19:51:36.027Z,99643.72
2022-09-23T19:54:04.272Z,99643.03
2022-09-23T19:56:32.401Z,99637.84
2022-09-23T19:58:59.673Z,99648.63
2022-09-23T20:01:27.546Z,99644.28
2022-09-23T20:03:54.195Z,99645.97
2022-09-23T20:06:22.128Z,99635.31
2022-09-23T20:08:49.875Z,99640.50
2022-09-23T20:11:24.834Z,99637.84
2022-09-23T20:14:00.861Z,99626.94
2022-09-23T20:16:33.050Z,99632.41
2022-09-23T20:19:00.718Z,99635.75
2022-09-23T20:21:29.262Z,99627.63
2022-09-23T20:23:56.516Z,99624.97
2022-09-23T20:26:41.718Z,99618.81
2022-09-23T20:29:08.998Z,99625.81
2022-09-23T20:31:35.921Z,99628.47
2022-09-23T20:34:05.710Z,99625.81
2022-09-23T20:36:33.221Z,99622.28
2022-09-23T20:39:02.191Z,99619.63
2022-09-23T20:41:37.489Z,99619.63
2022-09-23T20:44:07.475Z,99625.81
2022-09-23T20:46:34.546Z,99629.28
2022-09-23T20:49:02.064Z,99620.75
2022-09-23T20:51:28.716Z,99630.72
2022-09-23T20:53:56.083Z,99627.59
2022-09-23T20:56:23.363Z,99626.06
2022-09-23T20:58:50.941Z,99625.63
2022-09-23T21:01:18.452Z,99626.06
2022-09-23T21:03:47.278Z,99626.47
2022-09-23T21:06:16.313Z,99623.25
2022-09-23T21:08:44.447Z,99614.53
2022-09-23T21:11:16.295Z,99618.44
2022-09-23T21:13:51.005Z,99614.25
2022-09-23T21:16:22.103Z,99616.78
2022-09-23T21:18:50.493Z,99609.63
2022-09-23T21:21:19.445Z,99601.66
2022-09-23T21:23:47.424Z,99613.13
2022-09-23T21:26:19.372Z,99603.47
2022-09-23T21:28:48.823Z,99602.47
2022-09-23T21:31:35.774Z,99600.81
2022-09-23T21:34:10.855Z,99605.44
2022-09-23T21:36:39.326Z,99606.13
2022-09-23T21:39:07.833Z,99608.09
2022-09-23T21:41:34.952Z,99609.91
2022-09-23T21:44:04.703Z,99610.16
2022-09-23T21:46:33.894Z,99607.50
2022-09-23T21:49:03.259Z,99598.84
2022-09-23T21:51:40.699Z,99596.31
2022-09-23T21:54:12.331Z,99593.91
2022-09-23T21:56:38.839Z,99602.75
2022-09-23T21:59:07.655Z,99599.34
2022-09-23T22:01:36.554Z,99601.34
2022-09-23T22:04:12.596Z,99602.31
2022-09-23T22:06:40.508Z,99602.31
2022-09-23T22:09:10.820Z,99598.94
2022-09-23T22:11:57.379Z,99602.56
2022-09-23T22:14:25.899Z,99601.72
2022-09-23T22:16:59.110Z,99599.34
2022-09-23T22:19:28.433Z,99597.50
2022-09-23T22:21:55.952Z,99599.19
2022-09-23T22:24:22.986Z,99598.38
2022-09-23T22:26:50.931Z,99592.31
2022-09-23T22:29:37.146Z,99587.00
2022-09-23T22:32:24.099Z,99587.84
2022-09-23T22:34:52.134Z,99587.00
2022-09-23T22:37:23.783Z,99585.47
2022-09-23T22:39:50.264Z,99588.97
2022-09-23T22:42:17.050Z,99580.28
2022-09-23T22:44:43.536Z,99578.59
2022-09-23T22:47:10.696Z,99575.25
2022-09-23T22:49:37.182Z,99574.38
2022-09-23T22:52:08.478Z,99572.00
2022-09-23T22:54:35.964Z,99568.50
2022-09-23T22:57:09.910Z,99567.91
2022-09-23T22:59:37.624Z,99567.78
2022-09-23T23:02:05.126Z,99563.59
2022-09-23T23:04:31.840Z,99566.38
2022-09-23T23:06:58.961Z,99564.00
2022-09-23T23:09:25.926Z,99564.97
2022-09-23T23:11:52.490Z,99563.38
2022-09-23T23:14:19.301Z,99561.84
2022-09-23T23:16:46.264Z,99556.78
2022-09-23T23:19:17.114Z,99559.84
2022-09-23T23:21:45.584Z,99563.63
2022-09-23T23:24:17.807Z,99559.53
2022-09-23T23:26:45.298Z,99552.56
2022-09-23T23:29:13.515Z,99550.03
2022-09-23T23:31:40.600Z,99551.13
2022-09-23T23:34:10.696Z,99549.44
2022-09-23T23:36:37.588Z,99551.25
2022-09-23T23:39:04.506Z,99546.78
2022-09-23T23:41:31.718Z,99543.41
2022-09-23T23:44:00.365Z,99538.09
2022-09-23T23:46:30.766Z,99539.91
2022-09-23T23:48:58.594Z,99538.94
2022-09-23T23:51:26.904Z,99542.44
2022-09-23T23:53:54.411Z,99540.63
2022-09-23T23:56:24.276Z,99544.25
2022-09-23T23:58:55.559Z,99547.06
